SHT5P EGAC-EGLL
Flight info
| Callsign | SHT5P |
|---|---|
| Flight time | 0h 51m |
| Altitude | 33000 |
| Route | DCT DUFFY L10 RINGA Q39 ETIGA DCT INKOB Q39 NOMSU UQ4 WAL UY53 NUGRA NUGRA2H |
| Aircraft | A320/M-SDE3FGIJ1KRWXY/SB1 |
Departure
| Time | 2026-04-22 22:02 |
|---|---|
| Airport | George Best Belfast City Airport (EGAC) |
Arrival
| Time | 2026-04-22 22:54 |
|---|---|
| Airport | London Heathrow Airport (EGLL) |
| Time | Latitude | Longitude | Altitude | Speed | Heading |
|---|---|---|---|---|---|
| 2026-04-22 21:04 | 54.61500 | -5.87145 | 23 ft | 0 kts | 156° |
| 2026-04-22 21:52 | 54.61516 | -5.87157 | 21 ft | 3 kts | 156° |
| 2026-04-22 21:52 | 54.61533 | -5.87170 | 21 ft | 3 kts | 157° |
| 2026-04-22 21:52 | 54.61553 | -5.87182 | 21 ft | 3 kts | 179° |
| 2026-04-22 21:52 | 54.61572 | -5.87175 | 21 ft | 1 kts | 214° |
| 2026-04-22 21:53 | 54.61573 | -5.87174 | 21 ft | 0 kts | 214° |
| 2026-04-22 21:56 | 54.61572 | -5.87175 | 21 ft | 1 kts | 214° |
| 2026-04-22 21:56 | 54.61553 | -5.87197 | 21 ft | 5 kts | 214° |
| 2026-04-22 21:56 | 54.61511 | -5.87248 | 21 ft | 9 kts | 214° |
| 2026-04-22 21:56 | 54.61456 | -5.87314 | 21 ft | 8 kts | 214° |
| 2026-04-22 21:57 | 54.61409 | -5.87387 | 21 ft | 11 kts | 234° |
| 2026-04-22 21:57 | 54.61346 | -5.87490 | 20 ft | 15 kts | 214° |
| 2026-04-22 21:57 | 54.61248 | -5.87607 | 18 ft | 18 kts | 214° |
| 2026-04-22 21:57 | 54.61149 | -5.87726 | 18 ft | 15 kts | 214° |
| 2026-04-22 21:58 | 54.61095 | -5.87795 | 21 ft | 5 kts | 226° |
| 2026-04-22 21:58 | 54.61089 | -5.87811 | 19 ft | 0 kts | 239° |
| 2026-04-22 22:00 | 54.61085 | -5.87824 | 21 ft | 4 kts | 247° |
| 2026-04-22 22:00 | 54.61092 | -5.87918 | 19 ft | 11 kts | 296° |
| 2026-04-22 22:00 | 54.61146 | -5.88023 | 21 ft | 12 kts | 346° |
| 2026-04-22 22:01 | 54.61197 | -5.87985 | 18 ft | 4 kts | 34° |
| 2026-04-22 22:01 | 54.61202 | -5.87979 | 18 ft | 0 kts | 34° |
| 2026-04-22 22:02 | 54.61237 | -5.87938 | 17 ft | 33 kts | 34° |
| 2026-04-22 22:02 | 54.61657 | -5.87434 | 17 ft | 109 kts | 34° |
| 2026-04-22 22:02 | 54.62441 | -5.86499 | 116 ft | 153 kts | 38° |
| 2026-04-22 22:02 | 54.63302 | -5.85461 | 859 ft | 151 kts | 39° |
| 2026-04-22 22:03 | 54.63885 | -5.83949 | 1402 ft | 162 kts | 79° |
| 2026-04-22 22:03 | 54.63697 | -5.81967 | 1710 ft | 183 kts | 120° |
| 2026-04-22 22:03 | 54.62661 | -5.80533 | 2035 ft | 207 kts | 155° |
| 2026-04-22 22:03 | 54.61262 | -5.79649 | 2495 ft | 224 kts | 158° |
| 2026-04-22 22:04 | 54.60256 | -5.79030 | 2780 ft | 240 kts | 158° |
| 2026-04-22 22:04 | 54.58689 | -5.77953 | 3717 ft | 237 kts | 147° |
| 2026-04-22 22:04 | 54.57305 | -5.76457 | 4721 ft | 237 kts | 145° |
| 2026-04-22 22:04 | 54.55909 | -5.74863 | 5549 ft | 244 kts | 144° |
| 2026-04-22 22:05 | 54.54466 | -5.73276 | 6399 ft | 249 kts | 147° |
| 2026-04-22 22:05 | 54.52997 | -5.71665 | 7293 ft | 251 kts | 146° |
| 2026-04-22 22:05 | 54.51520 | -5.70022 | 8159 ft | 255 kts | 146° |
| 2026-04-22 22:05 | 54.50015 | -5.68349 | 8999 ft | 260 kts | 146° |
| 2026-04-22 22:06 | 54.48487 | -5.66650 | 9829 ft | 263 kts | 147° |
| 2026-04-22 22:06 | 54.46938 | -5.64944 | 10643 ft | 267 kts | 147° |
| 2026-04-22 22:06 | 54.45309 | -5.63147 | 10936 ft | 290 kts | 147° |
| 2026-04-22 22:06 | 54.43550 | -5.61199 | 11220 ft | 310 kts | 147° |
| 2026-04-22 22:07 | 54.41716 | -5.59176 | 11865 ft | 315 kts | 147° |
| 2026-04-22 22:07 | 54.39976 | -5.56867 | 12587 ft | 319 kts | 136° |
| 2026-04-22 22:07 | 54.38532 | -5.53937 | 13258 ft | 325 kts | 127° |
| 2026-04-22 22:07 | 54.37238 | -5.50718 | 13909 ft | 330 kts | 126° |
| 2026-04-22 22:08 | 54.35924 | -5.47453 | 14540 ft | 336 kts | 127° |
| 2026-04-22 22:08 | 54.34585 | -5.44139 | 15188 ft | 340 kts | 127° |
| 2026-04-22 22:08 | 54.33226 | -5.40783 | 15805 ft | 345 kts | 127° |
| 2026-04-22 22:08 | 54.31847 | -5.37378 | 16388 ft | 350 kts | 127° |
| 2026-04-22 22:09 | 54.30440 | -5.33940 | 16935 ft | 355 kts | 127° |
| 2026-04-22 22:09 | 54.29016 | -5.30447 | 17489 ft | 360 kts | 127° |
| 2026-04-22 22:09 | 54.27558 | -5.26929 | 18049 ft | 364 kts | 129° |
| 2026-04-22 22:09 | 54.25952 | -5.23546 | 18601 ft | 369 kts | 131° |
| 2026-04-22 22:10 | 54.24310 | -5.20143 | 19162 ft | 373 kts | 131° |
| 2026-04-22 22:10 | 54.22647 | -5.16693 | 19735 ft | 378 kts | 131° |
| 2026-04-22 22:10 | 54.20964 | -5.13207 | 20331 ft | 383 kts | 131° |
| 2026-04-22 22:10 | 54.19263 | -5.09679 | 20906 ft | 387 kts | 132° |
| 2026-04-22 22:11 | 54.17537 | -5.06106 | 21466 ft | 392 kts | 131° |
| 2026-04-22 22:11 | 54.15792 | -5.02489 | 22004 ft | 397 kts | 132° |
| 2026-04-22 22:11 | 54.14024 | -4.98839 | 22513 ft | 401 kts | 132° |
| 2026-04-22 22:11 | 54.12235 | -4.95148 | 23008 ft | 406 kts | 132° |
| 2026-04-22 22:12 | 54.10429 | -4.91416 | 23492 ft | 410 kts | 132° |
| 2026-04-22 22:12 | 54.08600 | -4.87659 | 23978 ft | 414 kts | 132° |
| 2026-04-22 22:12 | 54.06750 | -4.83860 | 24456 ft | 418 kts | 132° |
| 2026-04-22 22:12 | 54.04907 | -4.80078 | 24922 ft | 422 kts | 132° |
| 2026-04-22 22:13 | 54.03077 | -4.76145 | 25392 ft | 426 kts | 129° |
| 2026-04-22 22:13 | 54.01278 | -4.72028 | 25866 ft | 429 kts | 129° |
| 2026-04-22 22:13 | 53.99478 | -4.67956 | 26313 ft | 433 kts | 129° |
| 2026-04-22 22:13 | 53.97677 | -4.63931 | 26770 ft | 435 kts | 130° |
| 2026-04-22 22:14 | 53.95841 | -4.59828 | 27222 ft | 438 kts | 129° |
| 2026-04-22 22:14 | 53.93997 | -4.55704 | 27653 ft | 440 kts | 130° |
| 2026-04-22 22:14 | 53.92129 | -4.51556 | 28065 ft | 443 kts | 130° |
| 2026-04-22 22:14 | 53.90259 | -4.47390 | 28470 ft | 446 kts | 130° |
| 2026-04-22 22:15 | 53.88378 | -4.43189 | 28863 ft | 449 kts | 130° |
| 2026-04-22 22:15 | 53.86489 | -4.38964 | 29240 ft | 452 kts | 128° |
| 2026-04-22 22:15 | 53.84705 | -4.34565 | 29594 ft | 454 kts | 127° |
| 2026-04-22 22:15 | 53.82919 | -4.30134 | 29942 ft | 456 kts | 127° |
| 2026-04-22 22:16 | 53.81124 | -4.25712 | 30421 ft | 455 kts | 127° |
| 2026-04-22 22:16 | 53.79320 | -4.21318 | 30860 ft | 454 kts | 128° |
| 2026-04-22 22:16 | 53.77509 | -4.16928 | 31280 ft | 455 kts | 128° |
| 2026-04-22 22:16 | 53.75707 | -4.12540 | 31686 ft | 455 kts | 128° |
| 2026-04-22 22:17 | 53.73899 | -4.08154 | 32099 ft | 455 kts | 128° |
| 2026-04-22 22:17 | 53.72090 | -4.03772 | 32512 ft | 455 kts | 128° |
| 2026-04-22 22:17 | 53.70279 | -3.99383 | 32924 ft | 456 kts | 128° |
| 2026-04-22 22:17 | 53.68459 | -3.94998 | 33287 ft | 457 kts | 129° |
| 2026-04-22 22:18 | 53.66624 | -3.90589 | 33387 ft | 461 kts | 128° |
| 2026-04-22 22:18 | 53.62941 | -3.81731 | 33394 ft | 462 kts | 129° |
| 2026-04-22 22:19 | 53.59245 | -3.72885 | 33394 ft | 462 kts | 128° |
| 2026-04-22 22:19 | 53.55537 | -3.64063 | 33390 ft | 462 kts | 129° |
| 2026-04-22 22:20 | 53.51825 | -3.55257 | 33397 ft | 462 kts | 128° |
| 2026-04-22 22:20 | 53.48112 | -3.46454 | 33409 ft | 462 kts | 127° |
| 2026-04-22 22:21 | 53.45137 | -3.36835 | 33406 ft | 467 kts | 115° |
| 2026-04-22 22:21 | 53.42603 | -3.26814 | 33405 ft | 467 kts | 115° |
| 2026-04-22 22:22 | 53.40039 | -3.16814 | 33402 ft | 467 kts | 116° |
| 2026-04-22 22:22 | 53.36651 | -3.07635 | 33401 ft | 463 kts | 129° |
| 2026-04-22 22:23 | 53.32782 | -2.99001 | 33417 ft | 464 kts | 129° |
| 2026-04-22 22:23 | 53.28920 | -2.90375 | 33425 ft | 463 kts | 129° |
| 2026-04-22 22:24 | 53.25057 | -2.81756 | 33430 ft | 464 kts | 129° |
| 2026-04-22 22:24 | 53.21177 | -2.73151 | 33431 ft | 463 kts | 128° |
| 2026-04-22 22:25 | 53.17318 | -2.64597 | 33423 ft | 461 kts | 129° |
| 2026-04-22 22:25 | 53.13459 | -2.56069 | 33416 ft | 461 kts | 127° |
| 2026-04-22 22:26 | 53.09856 | -2.47203 | 33416 ft | 462 kts | 125° |
| 2026-04-22 22:26 | 53.06231 | -2.38361 | 33406 ft | 463 kts | 126° |
| 2026-04-22 22:27 | 53.02222 | -2.30139 | 33406 ft | 460 kts | 140° |
| 2026-04-22 22:27 | 52.97022 | -2.24073 | 33417 ft | 457 kts | 151° |
| 2026-04-22 22:28 | 52.91629 | -2.18483 | 33296 ft | 458 kts | 150° |
| 2026-04-22 22:28 | 52.88937 | -2.15658 | 33039 ft | 458 kts | 150° |
| 2026-04-22 22:28 | 52.86242 | -2.12847 | 32792 ft | 458 kts | 150° |
| 2026-04-22 22:28 | 52.83546 | -2.10035 | 32542 ft | 458 kts | 150° |
| 2026-04-22 22:29 | 52.80818 | -2.07203 | 31968 ft | 458 kts | 150° |
| 2026-04-22 22:29 | 52.78155 | -2.04432 | 31425 ft | 456 kts | 150° |
| 2026-04-22 22:29 | 52.75487 | -2.01672 | 31005 ft | 451 kts | 150° |
| 2026-04-22 22:29 | 52.72845 | -1.98915 | 30532 ft | 447 kts | 150° |
| 2026-04-22 22:30 | 52.70221 | -1.96209 | 30057 ft | 443 kts | 150° |
| 2026-04-22 22:30 | 52.67617 | -1.93519 | 29580 ft | 440 kts | 150° |
| 2026-04-22 22:30 | 52.65040 | -1.90848 | 29125 ft | 436 kts | 150° |
| 2026-04-22 22:30 | 52.62474 | -1.88214 | 28653 ft | 433 kts | 150° |
| 2026-04-22 22:31 | 52.59930 | -1.85603 | 28178 ft | 430 kts | 149° |
| 2026-04-22 22:31 | 52.57409 | -1.82989 | 27692 ft | 427 kts | 149° |
| 2026-04-22 22:31 | 52.54895 | -1.80404 | 27210 ft | 424 kts | 149° |
| 2026-04-22 22:31 | 52.52395 | -1.77850 | 26721 ft | 422 kts | 149° |
| 2026-04-22 22:32 | 52.49908 | -1.75302 | 26234 ft | 420 kts | 149° |
| 2026-04-22 22:32 | 52.47435 | -1.72771 | 25748 ft | 418 kts | 149° |
| 2026-04-22 22:32 | 52.44976 | -1.70264 | 25251 ft | 415 kts | 148° |
| 2026-04-22 22:32 | 52.42533 | -1.67768 | 24760 ft | 413 kts | 148° |
| 2026-04-22 22:33 | 52.40099 | -1.65286 | 24261 ft | 411 kts | 148° |
| 2026-04-22 22:33 | 52.37678 | -1.62830 | 23771 ft | 409 kts | 148° |
| 2026-04-22 22:33 | 52.35268 | -1.60391 | 23266 ft | 406 kts | 148° |
| 2026-04-22 22:33 | 52.32868 | -1.57959 | 22775 ft | 405 kts | 148° |
| 2026-04-22 22:34 | 52.30477 | -1.55543 | 22281 ft | 403 kts | 148° |
| 2026-04-22 22:34 | 52.28097 | -1.53130 | 21772 ft | 402 kts | 148° |
| 2026-04-22 22:34 | 52.25726 | -1.50728 | 21272 ft | 400 kts | 148° |
| 2026-04-22 22:34 | 52.23357 | -1.48343 | 20762 ft | 399 kts | 148° |
| 2026-04-22 22:35 | 52.21078 | -1.45812 | 20277 ft | 395 kts | 140° |
| 2026-04-22 22:35 | 52.18997 | -1.42931 | 19895 ft | 389 kts | 138° |
| 2026-04-22 22:35 | 52.16960 | -1.40063 | 19491 ft | 384 kts | 139° |
| 2026-04-22 22:35 | 52.14945 | -1.37253 | 19100 ft | 379 kts | 138° |
| 2026-04-22 22:36 | 52.12964 | -1.34482 | 18705 ft | 373 kts | 138° |
| 2026-04-22 22:36 | 52.11007 | -1.31753 | 18327 ft | 367 kts | 138° |
| 2026-04-22 22:36 | 52.09074 | -1.29067 | 17953 ft | 364 kts | 138° |
| 2026-04-22 22:36 | 52.07157 | -1.26402 | 17578 ft | 361 kts | 138° |
| 2026-04-22 22:37 | 52.05254 | -1.23762 | 17207 ft | 358 kts | 139° |
| 2026-04-22 22:37 | 52.03368 | -1.21146 | 16842 ft | 355 kts | 138° |
| 2026-04-22 22:37 | 52.01496 | -1.18548 | 16480 ft | 352 kts | 139° |
| 2026-04-22 22:37 | 51.99637 | -1.15989 | 16123 ft | 349 kts | 139° |
| 2026-04-22 22:38 | 51.97794 | -1.13452 | 15764 ft | 346 kts | 139° |
| 2026-04-22 22:38 | 51.95967 | -1.10925 | 15451 ft | 343 kts | 139° |
| 2026-04-22 22:38 | 51.94151 | -1.08423 | 15384 ft | 342 kts | 139° |
| 2026-04-22 22:38 | 51.92350 | -1.05945 | 15380 ft | 334 kts | 139° |
| 2026-04-22 22:39 | 51.90623 | -1.03578 | 15383 ft | 317 kts | 139° |
| 2026-04-22 22:39 | 51.88976 | -1.01323 | 15367 ft | 303 kts | 139° |
| 2026-04-22 22:39 | 51.87393 | -0.99145 | 15233 ft | 294 kts | 139° |
| 2026-04-22 22:39 | 51.85878 | -0.96996 | 15097 ft | 285 kts | 133° |
| 2026-04-22 22:40 | 51.84736 | -0.94452 | 14973 ft | 275 kts | 117° |
| 2026-04-22 22:40 | 51.83894 | -0.91707 | 14748 ft | 271 kts | 116° |
| 2026-04-22 22:40 | 51.83070 | -0.88982 | 14471 ft | 269 kts | 116° |
| 2026-04-22 22:40 | 51.82247 | -0.86279 | 14178 ft | 268 kts | 116° |
| 2026-04-22 22:41 | 51.81427 | -0.83593 | 13889 ft | 265 kts | 116° |
| 2026-04-22 22:41 | 51.80615 | -0.80928 | 13589 ft | 264 kts | 117° |
| 2026-04-22 22:41 | 51.79804 | -0.78284 | 13293 ft | 262 kts | 117° |
| 2026-04-22 22:41 | 51.78996 | -0.75658 | 13013 ft | 261 kts | 117° |
| 2026-04-22 22:42 | 51.78194 | -0.73049 | 12737 ft | 259 kts | 117° |
| 2026-04-22 22:42 | 51.77399 | -0.70454 | 12460 ft | 256 kts | 117° |
| 2026-04-22 22:42 | 51.76609 | -0.67888 | 12188 ft | 255 kts | 117° |
| 2026-04-22 22:42 | 51.75818 | -0.65341 | 11919 ft | 253 kts | 118° |
| 2026-04-22 22:43 | 51.75033 | -0.62810 | 11640 ft | 252 kts | 117° |
| 2026-04-22 22:43 | 51.74257 | -0.60291 | 11369 ft | 250 kts | 117° |
| 2026-04-22 22:43 | 51.73454 | -0.57818 | 11078 ft | 247 kts | 125° |
| 2026-04-22 22:43 | 51.72257 | -0.55875 | 10785 ft | 245 kts | 147° |
| 2026-04-22 22:44 | 51.70674 | -0.54896 | 10489 ft | 246 kts | 170° |
| 2026-04-22 22:44 | 51.68959 | -0.54740 | 10188 ft | 247 kts | 175° |
| 2026-04-22 22:44 | 51.67242 | -0.54658 | 9883 ft | 247 kts | 175° |
| 2026-04-22 22:44 | 51.65528 | -0.54567 | 9605 ft | 246 kts | 175° |
| 2026-04-22 22:45 | 51.63820 | -0.54538 | 9323 ft | 246 kts | 183° |
| 2026-04-22 22:45 | 51.62188 | -0.55354 | 9116 ft | 248 kts | 206° |
| 2026-04-22 22:45 | 51.60895 | -0.57194 | 8790 ft | 253 kts | 231° |
| 2026-04-22 22:45 | 51.60212 | -0.59800 | 8341 ft | 257 kts | 258° |
| 2026-04-22 22:46 | 51.60035 | -0.62682 | 7780 ft | 259 kts | 262° |
| 2026-04-22 22:46 | 51.59902 | -0.65565 | 7460 ft | 258 kts | 262° |
| 2026-04-22 22:46 | 51.59740 | -0.68455 | 7157 ft | 259 kts | 261° |
| 2026-04-22 22:46 | 51.59565 | -0.71302 | 6860 ft | 259 kts | 261° |
| 2026-04-22 22:47 | 51.59387 | -0.74216 | 6548 ft | 259 kts | 261° |
| 2026-04-22 22:47 | 51.59198 | -0.76115 | 6203 ft | 261 kts | 246° |
| 2026-04-22 22:47 | 51.57729 | -0.78753 | 5833 ft | 231 kts | 195° |
| 2026-04-22 22:47 | 51.56206 | -0.78953 | 5374 ft | 217 kts | 168° |
| 2026-04-22 22:48 | 51.54674 | -0.78885 | 4825 ft | 224 kts | 178° |
| 2026-04-22 22:48 | 51.53122 | -0.79146 | 4338 ft | 224 kts | 178° |
| 2026-04-22 22:48 | 51.51667 | -0.78694 | 3902 ft | 208 kts | 149° |
| 2026-04-22 22:48 | 51.50326 | -0.77775 | 3393 ft | 216 kts | 162° |
| 2026-04-22 22:49 | 51.49305 | -0.77551 | 3138 ft | 219 kts | 163° |
| 2026-04-22 22:49 | 51.48050 | -0.76528 | 3007 ft | 193 kts | 123° |
| 2026-04-22 22:49 | 51.47627 | -0.74629 | 3012 ft | 177 kts | 96° |
| 2026-04-22 22:49 | 51.47601 | -0.72690 | 2962 ft | 171 kts | 91° |
| 2026-04-22 22:50 | 51.47626 | -0.70839 | 2790 ft | 163 kts | 90° |
| 2026-04-22 22:50 | 51.47644 | -0.69076 | 2580 ft | 158 kts | 90° |
| 2026-04-22 22:50 | 51.47657 | -0.67338 | 2370 ft | 154 kts | 89° |
| 2026-04-22 22:50 | 51.47666 | -0.65632 | 2168 ft | 150 kts | 89° |
| 2026-04-22 22:51 | 51.47676 | -0.63991 | 1978 ft | 148 kts | 89° |
| 2026-04-22 22:51 | 51.47685 | -0.62344 | 1782 ft | 147 kts | 89° |
| 2026-04-22 22:51 | 51.47692 | -0.60695 | 1588 ft | 148 kts | 88° |
| 2026-04-22 22:51 | 51.47702 | -0.59033 | 1388 ft | 150 kts | 88° |
| 2026-04-22 22:52 | 51.47712 | -0.57348 | 1191 ft | 152 kts | 88° |
| 2026-04-22 22:52 | 51.47721 | -0.55655 | 986 ft | 150 kts | 88° |
| 2026-04-22 22:52 | 51.47727 | -0.54027 | 775 ft | 142 kts | 88° |
| 2026-04-22 22:52 | 51.47733 | -0.52459 | 602 ft | 140 kts | 88° |
| 2026-04-22 22:53 | 51.47743 | -0.50910 | 423 ft | 138 kts | 89° |
| 2026-04-22 22:53 | 51.47746 | -0.49380 | 237 ft | 136 kts | 87° |
| 2026-04-22 22:53 | 51.47753 | -0.47867 | 101 ft | 135 kts | 87° |
| 2026-04-22 22:53 | 51.47759 | -0.46541 | 91 ft | 89 kts | 90° |
| 2026-04-22 22:54 | 51.47760 | -0.45952 | 85 ft | 35 kts | 90° |
| 2026-04-22 22:54 | 51.47761 | -0.45609 | 85 ft | 21 kts | 90° |
| 2026-04-22 22:54 | 51.47700 | -0.45468 | 87 ft | 17 kts | 174° |
| 2026-04-22 22:54 | 51.47605 | -0.45493 | 89 ft | 13 kts | 229° |
| 2026-04-22 22:55 | 51.47595 | -0.45652 | 86 ft | 16 kts | 271° |
| 2026-04-22 22:55 | 51.47595 | -0.45853 | 88 ft | 20 kts | 270° |
| 2026-04-22 22:55 | 51.47593 | -0.46369 | 86 ft | 26 kts | 269° |
| 2026-04-22 22:56 | 51.47592 | -0.46642 | 88 ft | 20 kts | 270° |
| 2026-04-22 22:56 | 51.47589 | -0.46826 | 88 ft | 16 kts | 262° |
| 2026-04-22 22:56 | 51.47582 | -0.47022 | 90 ft | 19 kts | 270° |
| 2026-04-22 22:56 | 51.47582 | -0.47258 | 90 ft | 23 kts | 269° |
| 2026-04-22 22:57 | 51.47581 | -0.47532 | 89 ft | 26 kts | 269° |
| 2026-04-22 22:57 | 51.47579 | -0.47839 | 86 ft | 29 kts | 270° |
| 2026-04-22 22:57 | 51.47579 | -0.48156 | 91 ft | 25 kts | 269° |
| 2026-04-22 22:57 | 51.47577 | -0.48378 | 88 ft | 15 kts | 269° |
| 2026-04-22 22:58 | 51.47520 | -0.48475 | 89 ft | 15 kts | 182° |
| 2026-04-22 22:58 | 51.47404 | -0.48475 | 86 ft | 16 kts | 180° |
| 2026-04-22 22:58 | 51.47330 | -0.48472 | 88 ft | 5 kts | 179° |
| 2026-04-22 22:58 | 51.47317 | -0.48496 | 89 ft | 3 kts | 257° |
| 2026-04-22 22:59 | 51.47316 | -0.48536 | 86 ft | 5 kts | 269° |
| 2026-04-22 22:59 | 51.47316 | -0.48585 | 90 ft | 2 kts | 270° |
| 2026-04-22 22:59 | 51.47316 | -0.48588 | 86 ft | 0 kts | 270° |
| 2026-04-22 23:16 | 51.47316 | -0.48560 | 90 ft | 3 kts | 269° |
| 2026-04-22 23:16 | 51.47316 | -0.48528 | 86 ft | 2 kts | 269° |
| 2026-04-22 23:17 | 51.47319 | -0.48496 | 86 ft | 3 kts | 237° |
| 2026-04-22 23:17 | 51.47334 | -0.48476 | 87 ft | 3 kts | 189° |
| 2026-04-22 23:17 | 51.47345 | -0.48474 | 86 ft | 2 kts | 179° |
| 2026-04-22 23:17 | 51.47314 | -0.48474 | 86 ft | 5 kts | 180° |
| 2026-04-22 23:18 | 51.47283 | -0.48474 | 86 ft | 5 kts | 181° |
| 2026-04-22 23:18 | 51.47252 | -0.48476 | 86 ft | 5 kts | 183° |
| 2026-04-22 23:18 | 51.47220 | -0.48480 | 88 ft | 5 kts | 186° |
| 2026-04-22 23:18 | 51.47189 | -0.48487 | 87 ft | 5 kts | 189° |
| 2026-04-22 23:19 | 51.47176 | -0.48490 | 86 ft | 0 kts | 190° |
| 2026-04-22 23:19 | 51.47165 | -0.48494 | 89 ft | 5 kts | 191° |
| 2026-04-22 23:19 | 51.47135 | -0.48504 | 88 ft | 5 kts | 192° |